createdAt,value
2017-08-25T00:02:18.534Z,57.40
2017-08-25T00:04:46.606Z,57.60
2017-08-25T00:07:14.697Z,57.50
2017-08-25T00:09:42.769Z,57.80
2017-08-25T00:12:10.865Z,56.90
2017-08-25T00:14:38.930Z,57.20
2017-08-25T00:17:07.031Z,57.60
2017-08-25T00:19:35.102Z,57.00
2017-08-25T00:22:03.173Z,56.90
2017-08-25T00:24:31.274Z,56.90
2017-08-25T00:26:59.352Z,57.50
2017-08-25T00:29:27.426Z,57.60
2017-08-25T00:31:55.526Z,58.20
2017-08-25T00:34:23.596Z,57.80
2017-08-25T00:36:51.665Z,58.30
2017-08-25T00:39:19.758Z,58.80
2017-08-25T00:41:48.618Z,57.40
2017-08-25T00:44:16.690Z,56.90
2017-08-25T00:46:44.782Z,57.40
2017-08-25T00:49:12.855Z,57.90
2017-08-25T00:51:40.945Z,57.90
2017-08-25T00:54:09.058Z,57.80
2017-08-25T00:56:37.134Z,57.60
2017-08-25T00:59:05.203Z,57.30
2017-08-25T01:01:33.306Z,58.00
2017-08-25T01:04:01.378Z,58.20
2017-08-25T01:06:29.870Z,56.90
2017-08-25T01:08:57.942Z,57.40
2017-08-25T01:11:26.038Z,57.40
2017-08-25T01:13:54.105Z,57.20
2017-08-25T01:16:22.182Z,57.20
2017-08-25T01:18:50.278Z,57.30
2017-08-25T01:21:18.346Z,57.20
2017-08-25T01:23:46.458Z,57.90
2017-08-25T01:26:14.530Z,56.90
2017-08-25T01:28:42.601Z,57.40
2017-08-25T01:31:10.694Z,57.20
2017-08-25T01:33:38.794Z,56.50
2017-08-25T01:36:06.866Z,57.20
2017-08-25T01:38:34.981Z,56.60
2017-08-25T01:41:03.437Z,56.90
2017-08-25T01:43:31.510Z,57.40
2017-08-25T01:46:00.372Z,57.00
2017-08-25T01:48:28.443Z,57.10
2017-08-25T01:50:56.545Z,57.70
2017-08-25T01:53:24.623Z,56.90
2017-08-25T01:55:53.086Z,57.70
2017-08-25T01:58:21.179Z,57.20
2017-08-25T02:00:49.650Z,57.60
2017-08-25T02:03:17.749Z,58.20
2017-08-25T02:05:46.627Z,57.10
2017-08-25T02:08:14.657Z,57.60
2017-08-25T02:10:42.754Z,57.30
2017-08-25T02:13:10.830Z,57.70
2017-08-25T02:15:39.734Z,56.80
2017-08-25T02:18:07.778Z,57.30
2017-08-25T02:20:35.854Z,57.50
2017-08-25T02:23:03.947Z,56.10
2017-08-25T02:25:32.125Z,56.60
2017-08-25T02:28:00.178Z,57.40
2017-08-25T02:30:28.271Z,56.80
2017-08-25T02:32:56.341Z,56.60
2017-08-25T02:35:24.438Z,56.30
2017-08-25T02:37:52.511Z,56.80
2017-08-25T02:40:20.614Z,57.50
2017-08-25T02:42:48.686Z,57.90
2017-08-25T02:45:17.518Z,56.30
2017-08-25T02:47:45.618Z,56.70
2017-08-25T02:50:13.693Z,57.80
2017-08-25T02:52:41.806Z,57.50
2017-08-25T02:55:09.877Z,57.30
2017-08-25T02:57:37.945Z,57.90
2017-08-25T03:00:06.042Z,57.50
2017-08-25T03:02:34.152Z,57.00
2017-08-25T03:05:02.219Z,57.30
2017-08-25T03:07:30.290Z,57.00
2017-08-25T03:09:58.386Z,57.50
2017-08-25T03:12:26.458Z,57.00
2017-08-25T03:14:54.550Z,57.00
2017-08-25T03:17:22.626Z,57.30
2017-08-25T03:19:50.718Z,56.50
2017-08-25T03:22:19.786Z,57.40
2017-08-25T03:24:47.857Z,55.80
2017-08-25T03:27:16.719Z,57.10
2017-08-25T03:29:44.786Z,57.00
2017-08-25T03:32:12.882Z,56.50
2017-08-25T03:34:40.974Z,56.80
2017-08-25T03:37:09.050Z,57.40
2017-08-25T03:39:37.968Z,56.10
2017-08-25T03:42:06.006Z,56.60
2017-08-25T03:44:34.098Z,56.90
2017-08-25T03:47:02.170Z,56.90
2017-08-25T03:49:30.266Z,56.90
2017-08-25T03:51:58.362Z,57.70
2017-08-25T03:54:26.429Z,56.40
2017-08-25T03:56:54.526Z,57.40
2017-08-25T03:59:22.603Z,57.00
2017-08-25T04:01:51.457Z,56.30
2017-08-25T04:04:19.522Z,56.90
2017-08-25T04:06:47.618Z,56.20
2017-08-25T04:09:15.694Z,56.90
2017-08-25T04:11:43.785Z,56.60
2017-08-25T04:14:12.646Z,57.80
2017-08-25T04:16:40.720Z,57.80
2017-08-25T04:19:08.814Z,56.20
2017-08-25T04:21:36.882Z,56.20
2017-08-25T04:24:04.981Z,56.60
2017-08-25T04:26:33.058Z,56.70
2017-08-25T04:29:01.146Z,57.10
2017-08-25T04:31:30.351Z,57.50
2017-08-25T04:33:58.446Z,57.40
2017-08-25T04:36:26.519Z,58.30
2017-08-25T04:38:54.622Z,58.10
2017-08-25T04:41:23.478Z,58.80
2017-08-25T04:43:51.550Z,57.60
2017-08-25T04:46:19.646Z,58.00
2017-08-25T04:48:47.758Z,57.60
2017-08-25T04:51:15.830Z,58.10
2017-08-25T04:53:43.902Z,58.50
2017-08-25T04:56:11.994Z,58.10
2017-08-25T04:58:40.067Z,58.90
2017-08-25T05:01:08.162Z,58.40
2017-08-25T05:03:36.281Z,59.00
2017-08-25T05:06:04.344Z,58.70
2017-08-25T05:08:32.417Z,59.30
2017-08-25T05:11:00.519Z,59.50
2017-08-25T05:13:28.592Z,60.40
2017-08-25T05:15:56.702Z,58.30
2017-08-25T05:18:24.777Z,59.00
2017-08-25T05:20:52.847Z,58.90
2017-08-25T05:23:20.939Z,59.30
2017-08-25T05:25:49.097Z,58.80
2017-08-25T05:28:17.958Z,58.60
2017-08-25T05:30:46.062Z,58.20
2017-08-25T05:33:14.902Z,59.00
2017-08-25T05:35:43.742Z,58.00
2017-08-25T05:38:11.846Z,58.60
2017-08-25T05:40:40.698Z,58.80
2017-08-25T05:43:08.770Z,58.90
2017-08-25T05:45:37.723Z,57.90
2017-08-25T05:48:05.767Z,58.50
2017-08-25T05:50:33.874Z,58.70
2017-08-25T05:53:01.946Z,58.90
2017-08-25T05:55:30.059Z,58.50
2017-08-25T05:57:58.170Z,57.70
2017-08-25T06:00:27.007Z,56.80
2017-08-25T06:02:55.565Z,55.40
2017-08-25T06:05:23.609Z,56.00
2017-08-25T06:07:51.702Z,56.30
2017-08-25T06:10:19.802Z,55.20
2017-08-25T06:12:47.874Z,55.30
2017-08-25T06:15:15.970Z,56.00
2017-08-25T06:17:44.046Z,55.90
2017-08-25T06:20:12.161Z,54.20
2017-08-25T06:22:40.234Z,54.70
2017-08-25T06:25:08.329Z,54.60
2017-08-25T06:27:36.397Z,53.50
2017-08-25T06:30:04.466Z,54.00
2017-08-25T06:32:32.563Z,55.20
2017-08-25T06:35:00.654Z,55.60
2017-08-25T06:37:28.798Z,54.60
2017-08-25T06:39:56.870Z,53.50
2017-08-25T06:42:24.970Z,52.00
2017-08-25T06:44:53.042Z,52.00
2017-08-25T06:47:21.158Z,51.20
2017-08-25T06:49:49.258Z,51.70
2017-08-25T06:52:17.337Z,51.70
2017-08-25T06:54:45.415Z,52.30
2017-08-25T06:57:13.510Z,50.10
2017-08-25T06:59:41.582Z,50.20
2017-08-25T07:02:09.702Z,50.70
2017-08-25T07:04:37.782Z,49.60
2017-08-25T07:07:05.856Z,49.00
2017-08-25T07:09:33.955Z,48.40
2017-08-25T07:12:02.028Z,49.30
2017-08-25T07:14:30.118Z,48.20
2017-08-25T07:16:58.606Z,46.30
2017-08-25T07:19:26.702Z,46.80
2017-08-25T07:21:54.774Z,46.60
2017-08-25T07:24:23.274Z,45.30
2017-08-25T07:26:51.351Z,45.30
2017-08-25T07:29:19.426Z,45.80
2017-08-25T07:31:47.522Z,46.00
2017-08-25T07:34:15.626Z,44.70
2017-08-25T07:36:43.698Z,43.80
2017-08-25T07:39:11.775Z,44.30
2017-08-25T07:41:40.294Z,42.70
2017-08-25T07:44:08.371Z,42.50
2017-08-25T07:46:36.438Z,43.90
2017-08-25T07:49:04.538Z,44.60
2017-08-25T07:51:32.622Z,44.10
2017-08-25T07:54:00.694Z,44.30
2017-08-25T07:56:29.564Z,43.00
2017-08-25T07:58:57.637Z,43.00
2017-08-25T08:01:25.738Z,41.20
2017-08-25T08:03:54.252Z,39.70
2017-08-25T08:06:22.294Z,40.00
2017-08-25T08:08:50.405Z,39.40
2017-08-25T08:11:18.469Z,40.90
2017-08-25T08:13:46.544Z,40.50
2017-08-25T08:16:14.662Z,38.70
2017-08-25T08:18:42.742Z,39.80
2017-08-25T08:21:11.586Z,37.20
2017-08-25T08:23:39.694Z,36.50
2017-08-25T08:26:08.231Z,34.70
2017-08-25T08:28:36.262Z,35.20
2017-08-25T08:31:04.353Z,36.40
2017-08-25T08:33:32.450Z,33.40
2017-08-25T08:36:00.532Z,33.30
2017-08-25T08:38:28.637Z,34.40
2017-08-25T08:40:56.723Z,34.60
2017-08-25T08:43:25.553Z,34.60
2017-08-25T08:45:54.137Z,34.30
2017-08-25T08:48:22.190Z,34.40
2017-08-25T08:50:50.266Z,35.20
2017-08-25T08:53:18.372Z,31.00
2017-08-25T08:55:46.440Z,29.50
2017-08-25T08:58:14.515Z,30.90
2017-08-25T09:00:42.619Z,32.10
2017-08-25T09:03:11.455Z,30.40
2017-08-25T09:08:35.838Z,29.30
2017-08-25T09:11:04.331Z,30.40
2017-08-25T09:13:32.430Z,29.70
2017-08-25T09:16:00.501Z,29.60
2017-08-25T09:18:28.578Z,30.00
2017-08-25T09:20:57.074Z,30.60
2017-08-25T09:23:25.541Z,29.50
2017-08-25T09:25:54.111Z,30.00
2017-08-25T09:28:22.154Z,30.50
2017-08-25T09:30:50.230Z,29.60
2017-08-25T09:33:18.334Z,30.00
2017-08-25T09:35:47.216Z,28.70
2017-08-25T09:38:15.702Z,28.60
2017-08-25T09:40:43.783Z,29.00
2017-08-25T09:43:11.858Z,29.10
2017-08-25T09:45:40.736Z,27.00
2017-08-25T09:48:08.810Z,26.20
2017-08-25T09:50:37.298Z,25.70
2017-08-25T09:53:05.374Z,26.10
2017-08-25T09:55:33.866Z,25.60
2017-08-25T09:58:01.934Z,26.00
2017-08-25T10:00:30.010Z,26.40
2017-08-25T10:02:58.106Z,28.10
2017-08-25T10:05:26.938Z,27.70
2017-08-25T10:07:55.052Z,27.80
2017-08-25T10:10:23.128Z,27.90
2017-08-25T10:12:51.198Z,26.20
2017-08-25T10:15:19.291Z,26.60
2017-08-25T10:17:47.366Z,25.30
2017-08-25T10:20:16.247Z,25.90
2017-08-25T10:22:44.318Z,25.80
2017-08-25T10:25:12.398Z,27.00
2017-08-25T10:27:40.494Z,24.70
2017-08-25T10:30:08.566Z,24.70
2017-08-25T10:32:36.669Z,24.70
2017-08-25T10:35:16.862Z,23.20
2017-08-25T10:40:57.618Z,22.30
2017-08-25T10:43:37.740Z,24.40
2017-08-25T10:46:06.210Z,22.10
2017-08-25T10:48:34.323Z,21.70
2017-08-25T10:51:02.398Z,21.00
2017-08-25T10:53:30.511Z,21.40
2017-08-25T10:55:59.041Z,20.80
2017-08-25T10:58:27.459Z,22.60
2017-08-25T11:00:55.549Z,21.10
2017-08-25T11:03:23.622Z,21.70
2017-08-25T11:05:52.559Z,19.60
2017-08-25T11:08:21.390Z,19.70
2017-08-25T11:10:49.470Z,19.60
2017-08-25T11:13:18.322Z,20.80
2017-08-25T11:15:46.390Z,19.10
2017-08-25T11:18:14.508Z,19.50
2017-08-25T11:20:42.599Z,20.00
2017-08-25T11:23:10.665Z,20.20
2017-08-25T11:25:39.181Z,19.50
2017-08-25T11:28:07.250Z,19.90
2017-08-25T11:30:35.426Z,19.90
2017-08-25T11:33:03.908Z,21.30
2017-08-25T11:35:31.972Z,21.80
2017-08-25T11:38:00.046Z,19.70
2017-08-25T11:40:28.226Z,19.00
2017-08-25T11:42:56.259Z,18.40
2017-08-25T11:45:24.354Z,19.30
2017-08-25T11:47:52.450Z,18.70
2017-08-25T11:50:20.526Z,18.40
2017-08-25T11:52:48.625Z,18.10
2017-08-25T11:55:16.690Z,19.00
2017-08-25T11:57:44.798Z,19.30
2017-08-25T12:00:12.885Z,19.00
2017-08-25T12:02:40.958Z,17.70
2017-08-25T12:05:09.066Z,17.90
2017-08-25T12:07:37.146Z,18.50
2017-08-25T12:10:05.218Z,18.50
2017-08-25T12:12:33.305Z,17.30
2017-08-25T12:15:01.406Z,16.70
2017-08-25T12:17:29.494Z,19.10
2017-08-25T12:19:57.573Z,18.70
2017-08-25T12:22:25.694Z,17.20
2017-08-25T12:24:53.774Z,17.80
2017-08-25T12:27:22.622Z,16.70
2017-08-25T12:29:50.717Z,16.60
2017-08-25T12:32:18.790Z,16.60
2017-08-25T12:34:46.893Z,16.30
2017-08-25T12:37:14.989Z,16.60
2017-08-25T12:39:43.066Z,16.60
2017-08-25T12:42:11.159Z,17.20
2017-08-25T12:44:40.365Z,16.40
2017-08-25T12:47:08.443Z,16.40
2017-08-25T12:49:36.592Z,15.40
2017-08-25T12:52:04.658Z,15.80
2017-08-25T12:54:32.727Z,16.20
2017-08-25T12:57:01.230Z,15.90
2017-08-25T12:59:29.302Z,15.00
2017-08-25T13:01:57.378Z,15.40
2017-08-25T13:04:25.474Z,15.10
2017-08-25T13:06:53.546Z,15.60
2017-08-25T13:09:21.654Z,16.30
2017-08-25T13:11:50.161Z,17.90
2017-08-25T13:14:18.225Z,18.40
2017-08-25T13:16:46.318Z,17.90
2017-08-25T13:19:14.383Z,16.30
2017-08-25T13:21:42.474Z,16.10
2017-08-25T13:24:10.562Z,15.80
2017-08-25T13:26:38.650Z,15.60
2017-08-25T13:29:07.495Z,15.60
2017-08-25T13:31:35.595Z,15.00
2017-08-25T13:34:03.706Z,15.30
2017-08-25T13:36:31.786Z,15.10
2017-08-25T13:38:59.901Z,15.50
2017-08-25T13:41:27.975Z,16.10
2017-08-25T13:43:56.054Z,15.40
2017-08-25T13:46:24.162Z,16.00
2017-08-25T13:48:52.233Z,16.50
2017-08-25T13:51:20.301Z,16.20
2017-08-25T13:53:48.398Z,15.90
2017-08-25T13:56:16.486Z,18.50
2017-08-25T13:58:44.590Z,19.40
2017-08-25T14:01:12.662Z,20.30
2017-08-25T14:03:40.739Z,19.30
2017-08-25T14:06:08.854Z,16.20
2017-08-25T14:08:36.927Z,16.70
2017-08-25T14:11:04.998Z,17.30
2017-08-25T14:13:33.102Z,18.40
2017-08-25T14:16:01.175Z,20.60
2017-08-25T14:18:29.250Z,21.00
2017-08-25T14:20:57.342Z,22.80
2017-08-25T14:23:25.413Z,23.30
2017-08-25T14:25:53.905Z,23.50
2017-08-25T14:28:21.973Z,22.40
2017-08-25T14:30:50.070Z,21.50
2017-08-25T14:33:18.141Z,21.90
2017-08-25T14:35:46.254Z,23.00
2017-08-25T14:38:14.323Z,23.50
2017-08-25T14:40:42.397Z,24.20
2017-08-25T14:43:10.490Z,24.50
2017-08-25T14:45:38.982Z,25.00
2017-08-25T14:48:07.060Z,23.30
2017-08-25T14:50:35.162Z,21.80
2017-08-25T14:53:03.240Z,22.20
2017-08-25T14:55:31.722Z,22.30
2017-08-25T14:57:59.861Z,22.70
2017-08-25T15:00:27.935Z,23.30
2017-08-25T15:02:56.010Z,18.90
2017-08-25T15:05:24.110Z,19.30
2017-08-25T15:07:52.206Z,18.40
2017-08-25T15:10:20.306Z,18.00
2017-08-25T15:12:48.404Z,17.90
2017-08-25T15:15:17.234Z,19.70
2017-08-25T15:17:45.371Z,19.60
2017-08-25T15:20:13.450Z,21.90
2017-08-25T15:22:41.522Z,22.30
2017-08-25T15:25:09.616Z,20.80
2017-08-25T15:27:37.710Z,21.40
2017-08-25T15:30:05.797Z,23.80
2017-08-25T15:32:33.874Z,24.10
2017-08-25T15:35:01.973Z,25.20
2017-08-25T15:37:30.033Z,25.50
2017-08-25T15:39:58.521Z,26.40
2017-08-25T15:42:27.361Z,27.30
2017-08-25T15:44:55.478Z,27.30
2017-08-25T15:47:23.550Z,27.10
2017-08-25T15:49:51.627Z,28.30
2017-08-25T15:52:20.486Z,29.80
2017-08-25T15:54:48.558Z,29.60
2017-08-25T15:57:16.654Z,29.00
2017-08-25T15:59:44.756Z,29.10
2017-08-25T16:02:12.830Z,29.70
2017-08-25T16:04:40.903Z,30.80
2017-08-25T16:07:09.007Z,31.10
2017-08-25T16:09:37.102Z,30.70
2017-08-25T16:12:05.170Z,30.60
2017-08-25T16:14:33.261Z,32.60
2017-08-25T16:17:01.362Z,33.00
2017-08-25T16:19:29.456Z,41.80
2017-08-25T16:21:57.530Z,43.00
2017-08-25T16:24:26.042Z,50.30
2017-08-25T16:26:54.126Z,42.10
2017-08-25T16:29:22.194Z,45.60
2017-08-25T16:31:50.294Z,56.60
2017-08-25T16:34:18.766Z,57.30
2017-08-25T16:36:47.629Z,62.60
2017-08-25T16:39:15.702Z,63.40
2017-08-25T16:41:43.770Z,64.00
2017-08-25T16:44:11.874Z,68.90
2017-08-25T16:46:40.813Z,66.20
2017-08-25T16:49:08.842Z,66.20
2017-08-25T16:51:36.935Z,71.70
2017-08-25T16:54:05.086Z,71.70
2017-08-25T16:56:33.208Z,78.50
2017-08-25T16:59:01.258Z,79.30
2017-08-25T17:01:29.358Z,78.00
2017-08-25T17:03:57.445Z,78.60
2017-08-25T17:06:25.518Z,76.60
2017-08-25T17:08:53.614Z,76.20
2017-08-25T17:11:22.451Z,77.70
2017-08-25T17:13:51.343Z,81.50
2017-08-25T17:16:19.395Z,82.10
2017-08-25T17:18:48.240Z,81.60
2017-08-25T17:21:16.338Z,82.80
2017-08-25T17:23:44.446Z,83.30
2017-08-25T17:26:12.526Z,86.00
2017-08-25T17:28:40.602Z,85.70
2017-08-25T17:31:08.694Z,86.20
2017-08-25T17:33:36.786Z,84.40
2017-08-25T17:36:05.732Z,83.10
2017-08-25T17:38:33.782Z,84.70
2017-08-25T17:41:02.623Z,84.40
2017-08-25T17:43:30.752Z,85.00
2017-08-25T17:45:59.266Z,85.30
2017-08-25T17:48:27.338Z,87.00
2017-08-25T17:50:55.412Z,87.10
2017-08-25T17:53:23.522Z,86.40
2017-08-25T17:55:52.003Z,88.50
2017-08-25T17:58:20.094Z,89.80
2017-08-25T18:00:48.207Z,90.00
2017-08-25T18:03:16.390Z,90.40
2017-08-25T18:05:45.973Z,90.80
2017-08-25T18:08:14.033Z,90.40
2017-08-25T18:10:42.130Z,89.60
2017-08-25T18:13:10.598Z,88.90
2017-08-25T18:15:38.722Z,90.30
2017-08-25T18:18:06.794Z,90.30
2017-08-25T18:20:34.866Z,91.80
2017-08-25T18:23:03.358Z,90.10
2017-08-25T18:25:31.506Z,90.70
2017-08-25T18:27:59.587Z,91.20
2017-08-25T18:30:28.458Z,90.20
2017-08-25T18:32:56.543Z,89.10
2017-08-25T18:35:27.358Z,90.50
2017-08-25T18:37:56.355Z,90.10
2017-08-25T18:40:25.346Z,90.30
2017-08-25T18:42:53.458Z,91.10
2017-08-25T18:45:22.302Z,90.90
2017-08-25T18:47:50.386Z,90.90
2017-08-25T18:50:18.487Z,91.10
2017-08-25T18:52:47.403Z,90.00
2017-08-25T18:55:15.878Z,90.60
2017-08-25T18:57:44.739Z,90.90
2017-08-25T19:00:12.850Z,91.10
2017-08-25T19:02:41.703Z,90.70
2017-08-25T19:05:09.786Z,91.10
2017-08-25T19:07:37.898Z,90.60
2017-08-25T19:10:05.980Z,91.20
2017-08-25T19:12:34.057Z,91.50
2017-08-25T19:15:02.228Z,91.50
2017-08-25T19:17:31.558Z,91.20
2017-08-25T19:19:59.677Z,91.70
2017-08-25T19:22:27.750Z,92.00
2017-08-25T19:24:55.834Z,91.90
2017-08-25T19:27:23.942Z,92.10
2017-08-25T19:29:52.423Z,91.90
2017-08-25T19:32:20.528Z,91.70
2017-08-25T19:34:48.610Z,91.90
2017-08-25T19:37:16.719Z,92.10
2017-08-25T19:39:44.798Z,92.20
2017-08-25T19:42:13.702Z,91.60
2017-08-25T19:44:41.790Z,92.00
2017-08-25T19:47:09.873Z,92.10
2017-08-25T19:49:38.759Z,92.30
2017-08-25T19:52:06.842Z,92.80
2017-08-25T19:54:34.926Z,93.00
2017-08-25T19:57:03.778Z,92.50
2017-08-25T19:59:31.886Z,92.50
2017-08-25T20:02:01.511Z,92.90
2017-08-25T20:04:29.616Z,93.10
2017-08-25T20:06:57.698Z,93.30
2017-08-25T20:09:25.818Z,93.30
2017-08-25T20:11:54.686Z,93.30
2017-08-25T20:14:22.772Z,93.30
2017-08-25T20:16:50.898Z,93.20
2017-08-25T20:19:18.978Z,93.00
2017-08-25T20:21:47.744Z,92.50
2017-08-25T20:24:15.852Z,92.80
2017-08-25T20:26:43.935Z,93.00
2017-08-25T20:29:12.802Z,92.60
2017-08-25T20:31:40.909Z,92.80
2017-08-25T20:34:09.783Z,92.80
2017-08-25T20:36:37.889Z,92.70
2017-08-25T20:39:05.998Z,92.40
2017-08-25T20:41:34.083Z,92.50
2017-08-25T20:44:02.190Z,92.80
2017-08-25T20:46:30.703Z,92.50
2017-08-25T20:48:58.791Z,92.30
2017-08-25T20:51:26.902Z,92.60
2017-08-25T20:53:55.853Z,92.50
2017-08-25T20:56:23.918Z,92.40
2017-08-25T20:58:52.018Z,92.30
2017-08-25T21:01:20.106Z,92.30
2017-08-25T21:03:48.214Z,92.10
2017-08-25T21:06:16.298Z,92.40
2017-08-25T21:08:44.378Z,92.10
2017-08-25T21:11:12.498Z,91.80
2017-08-25T21:13:40.597Z,92.10
2017-08-25T21:16:09.475Z,92.20
2017-08-25T21:18:37.589Z,92.10
2017-08-25T21:21:05.670Z,92.10
2017-08-25T21:23:33.754Z,92.30
2017-08-25T21:26:01.866Z,92.40
2017-08-25T21:28:29.955Z,92.00
2017-08-25T21:30:58.067Z,92.30
2017-08-25T21:33:26.166Z,92.40
2017-08-25T21:35:54.249Z,92.20
2017-08-25T21:38:22.372Z,92.50
2017-08-25T21:40:50.454Z,92.70
2017-08-25T21:43:18.930Z,92.40
2017-08-25T21:45:47.813Z,92.30
2017-08-25T21:48:15.892Z,92.50
2017-08-25T21:50:44.006Z,92.60
2017-08-25T21:53:12.091Z,92.50
2017-08-25T21:55:40.174Z,92.40
2017-08-25T21:58:08.286Z,92.60
2017-08-25T22:00:36.377Z,92.30
2017-08-25T22:03:04.477Z,92.50
2017-08-25T22:05:32.601Z,92.30
2017-08-25T22:08:00.686Z,92.50
2017-08-25T22:10:28.770Z,92.10
2017-08-25T22:15:26.238Z,92.30
2017-08-25T22:17:54.338Z,92.00
2017-08-25T22:20:22.450Z,92.30
2017-08-25T22:22:50.559Z,92.20
2017-08-25T22:25:18.674Z,91.40
2017-08-25T22:27:46.758Z,91.70
2017-08-25T22:30:14.858Z,92.10
2017-08-25T22:32:43.714Z,92.20
2017-08-25T22:35:11.822Z,92.10
2017-08-25T22:37:39.942Z,91.90
2017-08-25T22:40:08.027Z,92.20
2017-08-25T22:42:36.109Z,92.50
2017-08-25T22:45:04.210Z,92.60
2017-08-25T22:47:32.315Z,92.80
2017-08-25T22:50:00.414Z,91.90
2017-08-25T22:52:29.270Z,92.50
2017-08-25T22:54:58.154Z,92.50
2017-08-25T22:57:26.238Z,92.70
2017-08-25T22:59:54.318Z,92.90
2017-08-25T23:02:22.431Z,92.30
2017-08-25T23:04:50.510Z,92.40
2017-08-25T23:07:18.990Z,91.90
2017-08-25T23:09:47.105Z,92.10
2017-08-25T23:12:15.586Z,92.10
2017-08-25T23:14:43.670Z,91.40
2017-08-25T23:17:12.170Z,91.60
2017-08-25T23:19:40.256Z,92.00
2017-08-25T23:22:08.358Z,92.20
2017-08-25T23:24:36.473Z,92.00
2017-08-25T23:27:04.554Z,92.30
2017-08-25T23:29:32.637Z,91.90
2017-08-25T23:32:00.746Z,92.10
2017-08-25T23:34:28.830Z,92.40
2017-08-25T23:36:56.933Z,91.90
2017-08-25T23:39:25.782Z,92.00
2017-08-25T23:41:53.902Z,92.20
2017-08-25T23:44:21.987Z,92.10
2017-08-25T23:46:50.135Z,91.70
2017-08-25T23:49:18.233Z,92.20
2017-08-25T23:51:46.334Z,91.70
2017-08-25T23:54:14.419Z,92.10
2017-08-25T23:56:42.518Z,92.30
2017-08-25T23:59:11.387Z,92.20
